AMA - Rick Husband Amarillo Intl

Pirep is a free, collaborative database of all public and private airports located within the United States. All pilots are welcome to contribute, edit, and improve any airport they have local knowledge about, no registration required.
Uploaded photos will be licensed under a CC BY-SA 4.0 license. Please only upload photos you have the rights to use.
Tags
Public
Food
Museum
METAR / TAF
Edit Tags
Camping
Lodging
Car Rental
Bicycles
Swimming
Golfing
Fishing
Hot Springs
Flying Clubs
Airpark
Upcoming Events
No upcoming events. Is anything happening here soon?
*
*
*

Where exactly on/near the airport is this event taking place?

Is there a webpage with more information for this event?

Who should be contacted for more information?

What is this event all about?

Repeat every
Description
Last updated: 2023-05-30 00:58:45 CDT
Transient Parking
Fuel Location
Landing & Tie-down Fees
Crew Car Availability
Flying Clubs
WiFi Access
Airport Statistics
Location: Amarillo, TX
Elevation: 3,606ft
Sectional: Dallas Ft Worth
Activation date: Oct 1937
Fuel: 100LL, A1+ (prices)
Runway 04/22: 13,502ft
Runway 13/31: 7,901ft
Access: Open to the public
Current Weather — VFR
  • Weather data is strictly informational and not for flight planning purposes.
  • METAR
    2024-05-30 03:53:00 CDT
    Ceiling Wind Temperature Dewpoint Weather Visbility
    Sky clear 170° @ 11kt 66°F 57°F N/A 10SM
    Raw: KAMA 300853Z AUTO 17011KT 10SM CLR 19/14 A2998 RMK AO2 SLP098 T01890144 55023
  • TAF
    2024-05-30 01:00:00 CDT – 2024-05-30 07:00:00 CDT
    Ceiling Wind Weather Visbility
    25,000ft 160° @ 15kt N/A 6SM
    Clouds: Scattered @ 10,000ft, Overcast @ 25,000ft
    Raw: KAMA 300545Z 3006/3106 16015KT P6SM SCT100 OVC250 FM301200 17012KT P6SM BKN015 FM301500 18017G27KT P6SM SCT060 PROB30 3021/3103 4SM TSRA BR OVC025CB FM310300 09012KT P6SM SCT100 BKN300
  • TAF
    2024-05-30 07:00:00 CDT – 2024-05-30 10:00:00 CDT
    Ceiling Wind Weather Visbility
    1,500ft 170° @ 12kt N/A 6SM
    Clouds: Broken @ 1,500ft
    Raw: KAMA 300545Z 3006/3106 16015KT P6SM SCT100 OVC250 FM301200 17012KT P6SM BKN015 FM301500 18017G27KT P6SM SCT060 PROB30 3021/3103 4SM TSRA BR OVC025CB FM310300 09012KT P6SM SCT100 BKN300
  • TAF
    2024-05-30 10:00:00 CDT – 2024-05-30 22:00:00 CDT
    Ceiling Wind Weather Visbility
    Sky clear 180° @ 17kt, gusts 27kt N/A 6SM
    Clouds: Scattered @ 6,000ft
    Raw: KAMA 300545Z 3006/3106 16015KT P6SM SCT100 OVC250 FM301200 17012KT P6SM BKN015 FM301500 18017G27KT P6SM SCT060 PROB30 3021/3103 4SM TSRA BR OVC025CB FM310300 09012KT P6SM SCT100 BKN300
  • TAF
    2024-05-30 16:00:00 CDT – 2024-05-30 22:00:00 CDT
    Ceiling Wind Weather Visbility
    2,500ft ° @ kt Thunderstorm rain, mist 4SM
    Clouds: Overcast @ 2,500ft
    Raw: KAMA 300545Z 3006/3106 16015KT P6SM SCT100 OVC250 FM301200 17012KT P6SM BKN015 FM301500 18017G27KT P6SM SCT060 PROB30 3021/3103 4SM TSRA BR OVC025CB FM310300 09012KT P6SM SCT100 BKN300
  • TAF
    2024-05-30 22:00:00 CDT – 2024-05-31 01:00:00 CDT
    Ceiling Wind Weather Visbility
    30,000ft 90° @ 12kt N/A 6SM
    Clouds: Scattered @ 10,000ft, Broken @ 30,000ft
    Raw: KAMA 300545Z 3006/3106 16015KT P6SM SCT100 OVC250 FM301200 17012KT P6SM BKN015 FM301500 18017G27KT P6SM SCT060 PROB30 3021/3103 4SM TSRA BR OVC025CB FM310300 09012KT P6SM SCT100 BKN300
Click/tap to add an annotation marker to the map
Airport Webcams
No webcams added yet.
Direct links to live image URLs will be displayed inline on this page. URLs to separate webpages will be linked to.
URL:
Direct links to live image URLs will be displayed inline on this page. URLs to separate webpages will be linked to.
URL:
Remarks
  • Index c equip avbl upon req.
  • Tiltrotor acft activity invof arpt.
  • Ldg fee.
  • For cd if una to ctc on fss freq, ctc albuquerque artcc at 505-856-4561.
  • When atct clsd, to incr intst and actvt malsr rwys 04 & 22; reil rwy 13; hirl rwys 04/22, 13/31; all twys - ctaf.
Comments
Leave a comment What was your experience like at this airport?